Terminal Aerodrome Forecast
Issued by NWS Sterling, VA

Current Version | Previous Version | Text Only | Print | Product List | Glossary Off
Versions: 1 2 3 4 5 6 7 8 9 10 11 12 13 14 15 16 17 18 19 20

000
FTUS41 KLWX 192329
TAFMRB
TAF
KMRB 192329Z 2000/2024 11006G17KT P6SM -RA BKN030 OVC100
     FM200300 06013KT 3SM RA OVC008 WS020/11040KT
     FM200400 06014KT 3SM +RA OVC008 WS020/12040KT
     FM200700 09014KT 3SM RA OVC008 WS020/13040KT
     FM200800 13012KT 3SM RA OVC008
     FM201000 17008KT 3SM -RA OVC008
     FM201200 23005KT P6SM OVC008
     FM201600 20008KT P6SM BKN050
     FM201800 19009KT 6SM -SHRA BKN060=

USA.gov is the U.S. government's official web portal to all federal, state and local government web resources and services.